Time,TemperatureF,DewpointF,PressureIn,WindDirection,WindDirectionDegrees,WindSpeedMPH,WindSpeedGustMPH,Humidity,HourlyPrecipIn,Conditions,Clouds,dailyrainin,SoftwareType,DateUTC
2013-02-15 00:04:00,45.0,16.9,30.02,SE,135,4.0,4.0,32,0.00,,,0.00,meteohub,2013-02-15 08:04:00,
2013-02-15 00:09:00,44.2,18.3,30.01,SE,135,5.0,5.0,35,0.00,,,0.00,meteohub,2013-02-15 08:09:00,
2013-02-15 00:14:00,44.1,18.1,30.01,SE,135,5.0,5.0,35,0.00,,,0.00,meteohub,2013-02-15 08:14:00,
2013-02-15 00:19:00,43.9,18.7,30.01,ESE,113,6.0,6.0,36,0.00,,,0.00,meteohub,2013-02-15 08:19:00,
2013-02-15 00:25:00,44.1,18.9,30.01,East,90,5.0,6.0,36,0.00,,,0.00,meteohub,2013-02-15 08:25:00,
2013-02-15 00:30:00,44.2,19.0,30.01,SE,135,6.0,6.0,36,0.00,,,0.00,meteohub,2013-02-15 08:30:00,
2013-02-15 00:35:00,44.4,19.0,30.01,SE,135,8.0,8.0,36,0.00,,,0.00,meteohub,2013-02-15 08:35:00,
2013-02-15 00:40:00,44.4,18.5,30.01,East,90,8.0,8.0,35,0.00,,,0.00,meteohub,2013-02-15 08:40:00,
2013-02-15 00:45:00,44.4,18.5,30.01,South,180,8.0,8.0,35,0.00,,,0.00,meteohub,2013-02-15 08:45:00,
2013-02-15 00:50:00,44.6,16.5,30.01,SE,135,10.0,11.0,32,0.00,,,0.00,meteohub,2013-02-15 08:50:00,
2013-02-15 00:55:00,44.8,16.0,30.01,SE,135,11.0,11.0,31,0.00,,,0.00,meteohub,2013-02-15 08:55:00,
2013-02-15 01:00:00,45.0,15.4,30.01,SE,135,9.0,12.0,30,0.00,,,0.00,meteohub,2013-02-15 09:00:00,
2013-02-15 01:05:00,45.0,13.8,30.01,East,90,10.0,15.0,28,0.00,,,0.00,meteohub,2013-02-15 09:05:00,
2013-02-15 01:10:00,44.8,13.6,30.01,SE,135,9.0,15.0,28,0.00,,,0.00,meteohub,2013-02-15 09:10:00,
2013-02-15 01:15:00,44.6,13.5,30.01,SE,135,7.0,15.0,28,0.00,,,0.00,meteohub,2013-02-15 09:15:00,
2013-02-15 01:20:00,44.4,14.9,30.01,East,90,8.0,10.0,30,0.00,,,0.00,meteohub,2013-02-15 09:20:00,
2013-02-15 01:25:00,44.2,14.7,30.01,SE,135,8.0,10.0,30,0.00,,,0.00,meteohub,2013-02-15 09:25:00,
2013-02-15 01:31:00,44.2,14.7,30.01,SE,135,7.0,10.0,30,0.00,,,0.00,meteohub,2013-02-15 09:31:00,
2013-02-15 01:36:00,44.2,15.4,30.01,SE,135,8.0,10.0,31,0.00,,,0.00,meteohub,2013-02-15 09:36:00,
2013-02-15 01:41:00,44.4,15.6,30.01,SE,135,6.0,9.0,31,0.00,,,0.00,meteohub,2013-02-15 09:41:00,
2013-02-15 01:46:00,44.2,15.4,30.01,SE,135,5.0,8.0,31,0.00,,,0.00,meteohub,2013-02-15 09:46:00,
2013-02-15 01:51:00,44.2,16.2,30.01,SE,135,4.0,8.0,32,0.00,,,0.00,meteohub,2013-02-15 09:51:00,
2013-02-15 01:56:00,43.9,16.0,30.00,ESE,113,5.0,7.0,32,0.00,,,0.00,meteohub,2013-02-15 09:56:00,
2013-02-15 02:01:00,43.9,16.0,30.01,ESE,113,5.0,7.0,32,0.00,,,0.00,meteohub,2013-02-15 10:01:00,
2013-02-15 02:06:00,43.9,16.0,30.01,ESE,113,5.0,7.0,32,0.00,,,0.00,meteohub,2013-02-15 10:06:00,
2013-02-15 02:11:00,43.9,16.7,30.01,East,90,5.0,7.0,33,0.00,,,0.00,meteohub,2013-02-15 10:11:00,
2013-02-15 02:16:00,44.1,16.2,30.01,SE,135,5.0,7.0,32,0.00,,,0.00,meteohub,2013-02-15 10:16:00,
2013-02-15 02:21:00,44.2,16.2,30.00,SE,135,4.0,7.0,32,0.00,,,0.00,meteohub,2013-02-15 10:21:00,
2013-02-15 02:26:00,44.4,15.6,30.00,East,90,4.0,6.0,31,0.00,,,0.00,meteohub,2013-02-15 10:26:00,
2013-02-15 02:32:00,44.6,15.1,30.00,East,90,8.0,8.0,30,0.00,,,0.00,meteohub,2013-02-15 10:32:00,
2013-02-15 02:37:00,44.8,14.5,30.00,SE,135,7.0,8.0,29,0.00,,,0.00,meteohub,2013-02-15 10:37:00,
2013-02-15 02:42:00,44.8,14.5,30.00,ESE,113,7.0,8.0,29,0.00,,,0.00,meteohub,2013-02-15 10:42:00,
2013-02-15 02:47:00,44.6,13.5,29.99,SE,135,8.0,8.0,28,0.00,,,0.00,meteohub,2013-02-15 10:47:00,
2013-02-15 02:52:00,44.4,14.2,29.99,SE,135,4.0,8.0,29,0.00,,,0.00,meteohub,2013-02-15 10:52:00,
2013-02-15 02:57:00,44.1,13.8,29.99,SE,135,7.0,8.0,29,0.00,,,0.00,meteohub,2013-02-15 10:57:00,
2013-02-15 03:02:00,43.7,13.5,29.99,SE,135,7.0,8.0,29,0.00,,,0.00,meteohub,2013-02-15 11:02:00,
2013-02-15 03:07:00,43.5,13.3,29.99,East,90,6.0,8.0,29,0.00,,,0.00,meteohub,2013-02-15 11:07:00,
2013-02-15 03:12:00,43.3,14.0,29.99,SE,135,7.0,8.0,30,0.00,,,0.00,meteohub,2013-02-15 11:12:00,
2013-02-15 03:17:00,43.3,14.0,29.99,SE,135,7.0,8.0,30,0.00,,,0.00,meteohub,2013-02-15 11:17:00,
2013-02-15 03:22:00,43.0,12.9,29.99,SE,135,6.0,8.0,29,0.00,,,0.00,meteohub,2013-02-15 11:22:00,
2013-02-15 03:27:00,43.2,13.8,29.98,East,90,6.0,8.0,30,0.00,,,0.00,meteohub,2013-02-15 11:27:00,
2013-02-15 03:32:00,43.3,13.3,29.99,SE,135,8.0,8.0,29,0.00,,,0.00,meteohub,2013-02-15 11:32:00,
2013-02-15 03:37:00,43.5,13.3,29.98,SE,135,8.0,8.0,29,0.00,,,0.00,meteohub,2013-02-15 11:37:00,
2013-02-15 03:42:00,43.7,12.7,29.98,SE,135,10.0,11.0,28,0.00,,,0.00,meteohub,2013-02-15 11:42:00,
2013-02-15 04:02:00,44.6,12.7,29.98,SE,135,11.0,12.0,27,0.00,,,0.00,meteohub,2013-02-15 12:02:00,
2013-02-15 04:07:00,44.6,12.7,29.98,SE,135,11.0,12.0,27,0.00,,,0.00,meteohub,2013-02-15 12:07:00,
2013-02-15 04:12:00,45.0,12.2,29.98,SE,135,11.0,12.0,26,0.00,,,0.00,meteohub,2013-02-15 12:12:00,
2013-02-15 04:17:00,44.6,11.8,29.98,SE,135,8.0,11.0,26,0.00,,,0.00,meteohub,2013-02-15 12:17:00,
2013-02-15 04:22:00,44.2,13.1,29.98,SE,135,11.0,12.0,28,0.00,,,0.00,meteohub,2013-02-15 12:22:00,
2013-02-15 04:27:00,44.1,13.1,29.98,ESE,113,11.0,12.0,28,0.00,,,0.00,meteohub,2013-02-15 12:27:00,
2013-02-15 04:32:00,44.1,13.1,29.98,SE,135,9.0,11.0,28,0.00,,,0.00,meteohub,2013-02-15 12:32:00,
2013-02-15 04:37:00,44.1,13.1,29.98,East,90,8.0,13.0,28,0.00,,,0.00,meteohub,2013-02-15 12:37:00,
2013-02-15 04:42:00,44.1,13.1,29.98,East,90,11.0,13.0,28,0.00,,,0.00,meteohub,2013-02-15 12:42:00,
2013-02-15 04:47:00,43.9,12.9,29.98,East,90,8.0,13.0,28,0.00,,,0.00,meteohub,2013-02-15 12:47:00,
2013-02-15 04:52:00,43.7,12.7,29.98,SE,135,9.0,13.0,28,0.00,,,0.00,meteohub,2013-02-15 12:52:00,
2013-02-15 04:58:00,43.5,12.6,29.98,SE,135,8.0,13.0,28,0.00,,,0.00,meteohub,2013-02-15 12:58:00,
2013-02-15 05:03:00,43.5,12.6,29.99,SE,135,8.0,11.0,28,0.00,,,0.00,meteohub,2013-02-15 13:03:00,
2013-02-15 05:08:00,43.5,12.6,29.99,SE,135,10.0,12.0,28,0.00,,,0.00,meteohub,2013-02-15 13:08:00,
2013-02-15 05:13:00,43.7,12.7,29.99,SE,135,7.0,12.0,28,0.00,,,0.00,meteohub,2013-02-15 13:13:00,
2013-02-15 05:18:00,43.5,12.6,29.99,SE,135,8.0,12.0,28,0.00,,,0.00,meteohub,2013-02-15 13:18:00,
2013-02-15 05:23:00,43.3,12.4,29.99,SE,135,10.0,11.0,28,0.00,,,0.00,meteohub,2013-02-15 13:23:00,
2013-02-15 05:28:00,43.3,12.4,29.99,SE,135,8.0,11.0,28,0.00,,,0.00,meteohub,2013-02-15 13:28:00,
2013-02-15 05:33:00,43.3,12.4,29.99,SE,135,11.0,11.0,28,0.00,,,0.00,meteohub,2013-02-15 13:33:00,
2013-02-15 05:38:00,43.3,12.4,29.99,East,90,10.0,11.0,28,0.00,,,0.00,meteohub,2013-02-15 13:38:00,
2013-02-15 05:43:00,43.2,12.2,29.99,ESE,113,11.0,11.0,28,0.00,,,0.00,meteohub,2013-02-15 13:43:00,
2013-02-15 05:48:00,43.0,12.0,29.99,SE,135,8.0,11.0,28,0.00,,,0.00,meteohub,2013-02-15 13:48:00,
2013-02-15 05:53:00,42.8,12.0,29.99,East,90,9.0,11.0,28,0.00,,,0.00,meteohub,2013-02-15 13:53:00,
2013-02-15 05:58:00,42.6,12.6,29.99,SE,135,11.0,11.0,29,0.00,,,0.00,meteohub,2013-02-15 13:58:00,
2013-02-15 06:04:00,42.6,12.6,29.99,SE,135,5.0,11.0,29,0.00,,,0.00,meteohub,2013-02-15 14:04:00,
2013-02-15 06:09:00,42.4,13.1,29.99,SE,135,4.0,11.0,30,0.00,,,0.00,meteohub,2013-02-15 14:09:00,
2013-02-15 06:14:00,42.3,13.1,29.99,SE,135,4.0,11.0,30,0.00,,,0.00,meteohub,2013-02-15 14:14:00,
2013-02-15 06:19:00,42.3,13.1,29.99,East,90,5.0,8.0,30,0.00,,,0.00,meteohub,2013-02-15 14:19:00,
2013-02-15 06:24:00,42.3,13.8,30.00,East,90,5.0,8.0,31,0.00,,,0.00,meteohub,2013-02-15 14:24:00,
2013-02-15 06:29:00,42.1,13.6,30.00,SSE,158,4.0,8.0,31,0.00,,,0.00,meteohub,2013-02-15 14:29:00,
2013-02-15 06:34:00,41.9,13.5,30.00,SSE,158,4.0,8.0,31,0.00,,,0.00,meteohub,2013-02-15 14:34:00,
2013-02-15 06:39:00,41.9,13.5,30.00,East,90,4.0,8.0,31,0.00,,,0.00,meteohub,2013-02-15 14:39:00,
2013-02-15 06:44:00,41.9,13.5,30.01,ENE,68,7.0,7.0,31,0.00,,,0.00,meteohub,2013-02-15 14:44:00,
2013-02-15 06:49:00,42.1,13.6,30.00,East,90,7.0,9.0,31,0.00,,,0.00,meteohub,2013-02-15 14:49:00,
2013-02-15 06:54:00,42.3,13.8,30.01,East,90,5.0,9.0,31,0.00,,,0.00,meteohub,2013-02-15 14:54:00,
2013-02-15 06:59:00,42.3,13.8,30.01,East,90,5.0,9.0,31,0.00,,,0.00,meteohub,2013-02-15 14:59:00,
2013-02-15 07:04:00,42.3,13.8,30.01,East,90,4.0,9.0,31,0.00,,,0.00,meteohub,2013-02-15 15:04:00,
2013-02-15 07:10:00,42.4,14.0,30.01,East,90,4.0,9.0,31,0.00,,,0.00,meteohub,2013-02-15 15:10:00,
2013-02-15 07:15:00,42.6,14.0,30.01,SE,135,3.0,6.0,31,0.00,,,0.00,meteohub,2013-02-15 15:15:00,
2013-02-15 07:20:00,42.8,12.7,30.02,SE,135,3.0,6.0,29,0.00,,,0.00,meteohub,2013-02-15 15:20:00,
2013-02-15 07:25:00,43.0,12.9,30.02,East,90,4.0,6.0,29,0.00,,,0.00,meteohub,2013-02-15 15:25:00,
2013-02-15 07:30:00,43.5,12.6,30.02,SE,135,3.0,4.0,28,0.00,,,0.00,meteohub,2013-02-15 15:30:00,
2013-02-15 07:35:00,44.1,13.1,30.02,East,90,2.0,4.0,28,0.00,,,0.00,meteohub,2013-02-15 15:35:00,
2013-02-15 07:40:00,44.8,12.7,30.02,East,90,3.0,4.0,27,0.00,,,0.00,meteohub,2013-02-15 15:40:00,
2013-02-15 07:45:00,45.5,12.6,30.03,SE,135,4.0,4.0,26,0.00,,,0.00,meteohub,2013-02-15 15:45:00,
2013-02-15 07:50:00,46.0,12.2,30.03,SSE,158,4.0,4.0,25,0.00,,,0.00,meteohub,2013-02-15 15:50:00,
2013-02-15 07:55:00,46.8,14.5,30.03,NE,45,4.0,7.0,27,0.00,,,0.00,meteohub,2013-02-15 15:55:00,
2013-02-15 08:00:00,47.3,15.1,30.03,East,90,7.0,9.0,27,0.00,,,0.00,meteohub,2013-02-15 16:00:00,
2013-02-15 08:05:00,47.3,15.1,30.03,NE,45,4.0,9.0,27,0.00,,,0.00,meteohub,2013-02-15 16:05:00,
2013-02-15 08:10:00,47.5,14.4,30.04,East,90,9.0,9.0,26,0.00,,,0.00,meteohub,2013-02-15 16:10:00,
2013-02-15 08:16:00,47.3,14.2,30.04,East,90,8.0,10.0,26,0.00,,,0.00,meteohub,2013-02-15 16:16:00,
2013-02-15 08:21:00,47.3,14.2,30.04,East,90,8.0,10.0,26,0.00,,,0.00,meteohub,2013-02-15 16:21:00,
2013-02-15 08:26:00,48.0,14.7,30.04,East,90,4.0,10.0,26,0.00,,,0.00,meteohub,2013-02-15 16:26:00,
2013-02-15 08:31:00,48.6,14.4,30.04,SE,135,6.0,8.0,25,0.00,,,0.00,meteohub,2013-02-15 16:31:00,
2013-02-15 08:36:00,48.6,14.4,30.04,East,90,7.0,10.0,25,0.00,,,0.00,meteohub,2013-02-15 16:36:00,
2013-02-15 08:41:00,48.9,14.5,30.04,SE,135,7.0,11.0,25,0.00,,,0.00,meteohub,2013-02-15 16:41:00,
2013-02-15 08:46:00,49.3,14.9,30.05,SE,135,11.0,11.0,25,0.00,,,0.00,meteohub,2013-02-15 16:46:00,
2013-02-15 08:51:00,49.6,15.3,30.05,SE,135,6.0,11.0,25,0.00,,,0.00,meteohub,2013-02-15 16:51:00,
2013-02-15 08:56:00,50.0,14.5,30.05,East,90,11.0,11.0,24,0.00,,,0.00,meteohub,2013-02-15 16:56:00,
2013-02-15 09:01:00,50.2,14.7,30.05,SE,135,8.0,12.0,24,0.00,,,0.00,meteohub,2013-02-15 17:01:00,
2013-02-15 09:06:00,50.7,14.2,30.05,SE,135,6.0,12.0,23,0.00,,,0.00,meteohub,2013-02-15 17:06:00,
2013-02-15 09:11:00,50.9,15.4,30.04,ESE,113,11.0,12.0,24,0.00,,,0.00,meteohub,2013-02-15 17:11:00,
2013-02-15 09:16:00,51.3,15.6,30.05,East,90,9.0,11.0,24,0.00,,,0.00,meteohub,2013-02-15 17:16:00,
2013-02-15 09:22:00,51.6,16.0,30.05,SE,135,12.0,12.0,24,0.00,,,0.00,meteohub,2013-02-15 17:22:00,
2013-02-15 09:27:00,52.3,15.6,30.05,ESE,113,11.0,12.0,23,0.00,,,0.00,meteohub,2013-02-15 17:27:00,
2013-02-15 09:32:00,52.9,15.1,30.05,SE,135,10.0,12.0,22,0.00,,,0.00,meteohub,2013-02-15 17:32:00,
2013-02-15 09:37:00,53.4,15.4,30.04,SE,135,12.0,12.0,22,0.00,,,0.00,meteohub,2013-02-15 17:37:00,
2013-02-15 09:42:00,54.3,15.3,30.04,SE,135,5.0,12.0,21,0.00,,,0.00,meteohub,2013-02-15 17:42:00,
2013-02-15 09:47:00,55.2,16.0,30.04,East,90,4.0,12.0,21,0.00,,,0.00,meteohub,2013-02-15 17:47:00,
2013-02-15 09:52:00,55.6,19.4,30.04,East,90,4.0,12.0,24,0.00,,,0.00,meteohub,2013-02-15 17:52:00,
2013-02-15 09:57:00,56.1,19.8,30.04,SE,135,12.0,12.0,24,0.00,,,0.00,meteohub,2013-02-15 17:57:00,
2013-02-15 10:02:00,56.1,19.8,30.04,East,90,8.0,12.0,24,0.00,,,0.00,meteohub,2013-02-15 18:02:00,
2013-02-15 10:07:00,57.9,20.3,30.04,ESE,113,4.0,12.0,23,0.00,,,0.00,meteohub,2013-02-15 18:07:00,
2013-02-15 10:12:00,58.3,19.6,30.04,SE,135,11.0,12.0,22,0.00,,,0.00,meteohub,2013-02-15 18:12:00,
2013-02-15 10:17:00,59.4,20.5,30.04,SE,135,9.0,11.0,22,0.00,,,0.00,meteohub,2013-02-15 18:17:00,
2013-02-15 10:22:00,59.7,20.8,30.04,SE,135,10.0,11.0,22,0.00,,,0.00,meteohub,2013-02-15 18:22:00,
2013-02-15 10:27:00,60.6,21.6,30.04,ESE,113,5.0,11.0,22,0.00,,,0.00,meteohub,2013-02-15 18:27:00,
2013-02-15 10:32:00,61.2,20.8,30.04,SE,135,5.0,10.0,21,0.00,,,0.00,meteohub,2013-02-15 18:32:00,
2013-02-15 10:37:00,61.7,21.4,30.04,SE,135,8.0,12.0,21,0.00,,,0.00,meteohub,2013-02-15 18:37:00,
2013-02-15 10:42:00,63.0,21.2,30.04,East,90,8.0,12.0,20,0.00,,,0.00,meteohub,2013-02-15 18:42:00,
2013-02-15 10:47:00,63.9,21.9,30.04,East,90,13.0,13.0,20,0.00,,,0.00,meteohub,2013-02-15 18:47:00,
2013-02-15 10:52:00,64.4,21.2,30.04,East,90,8.0,13.0,19,0.00,,,0.00,meteohub,2013-02-15 18:52:00,
2013-02-15 10:57:00,65.1,21.7,30.04,East,90,4.0,13.0,19,0.00,,,0.00,meteohub,2013-02-15 18:57:00,
2013-02-15 11:02:00,65.8,21.2,30.04,South,180,10.0,13.0,18,0.00,,,0.00,meteohub,2013-02-15 19:02:00,
2013-02-15 11:07:00,66.2,21.4,30.04,SSE,158,6.0,11.0,18,0.00,,,0.00,meteohub,2013-02-15 19:07:00,
2013-02-15 11:12:00,66.6,20.3,30.04,ESE,113,5.0,12.0,17,0.00,,,0.00,meteohub,2013-02-15 19:12:00,
2013-02-15 11:17:00,67.3,21.0,30.04,ESE,113,9.0,12.0,17,0.00,,,0.00,meteohub,2013-02-15 19:17:00,
2013-02-15 11:22:00,67.6,21.2,30.04,SE,135,10.0,12.0,17,0.00,,,0.00,meteohub,2013-02-15 19:22:00,
2013-02-15 11:27:00,67.8,21.4,30.04,SE,135,6.0,12.0,17,0.00,,,0.00,meteohub,2013-02-15 19:27:00,
2013-02-15 11:32:00,68.9,20.8,30.04,South,180,8.0,11.0,16,0.00,,,0.00,meteohub,2013-02-15 19:32:00,
2013-02-15 11:37:00,69.8,20.1,30.04,East,90,8.0,11.0,15,0.00,,,0.00,meteohub,2013-02-15 19:37:00,
2013-02-15 11:42:00,70.7,20.8,30.03,East,90,8.0,11.0,15,0.00,,,0.00,meteohub,2013-02-15 19:42:00,
2013-02-15 11:47:00,71.4,21.4,30.03,East,90,6.0,9.0,15,0.00,,,0.00,meteohub,2013-02-15 19:47:00,
2013-02-15 11:52:00,72.0,20.1,30.03,East,90,9.0,9.0,14,0.00,,,0.00,meteohub,2013-02-15 19:52:00,
2013-02-15 11:57:00,71.6,19.9,30.03,East,90,9.0,11.0,14,0.00,,,0.00,meteohub,2013-02-15 19:57:00,
2013-02-15 12:02:00,72.0,20.1,30.03,East,90,13.0,13.0,14,0.00,,,0.00,meteohub,2013-02-15 20:02:00,
2013-02-15 12:07:00,72.0,20.1,30.03,East,90,13.0,13.0,14,0.00,,,0.00,meteohub,2013-02-15 20:07:00,
2013-02-15 12:12:00,72.7,19.0,30.02,South,180,13.0,13.0,13,0.00,,,0.00,meteohub,2013-02-15 20:12:00,
2013-02-15 12:17:00,72.9,19.2,30.03,SE,135,6.0,13.0,13,0.00,,,0.00,meteohub,2013-02-15 20:17:00,
2013-02-15 12:22:00,73.0,19.2,30.03,East,90,6.0,14.0,13,0.00,,,0.00,meteohub,2013-02-15 20:22:00,
2013-02-15 12:27:00,73.0,19.2,30.02,SE,135,11.0,14.0,13,0.00,,,0.00,meteohub,2013-02-15 20:27:00,
2013-02-15 12:32:00,73.6,24.6,30.02,East,90,6.0,14.0,16,0.00,,,0.00,meteohub,2013-02-15 20:32:00,
2013-02-15 12:37:00,74.3,25.2,30.02,East,90,8.0,11.0,16,0.00,,,0.00,meteohub,2013-02-15 20:37:00,
2013-02-15 12:42:00,74.5,25.3,30.02,SE,135,5.0,11.0,16,0.00,,,0.00,meteohub,2013-02-15 20:42:00,
2013-02-15 12:47:00,75.6,27.7,30.02,SE,135,7.0,10.0,17,0.00,,,0.00,meteohub,2013-02-15 20:47:00,
2013-02-15 12:52:00,75.7,26.4,30.02,East,90,8.0,10.0,16,0.00,,,0.00,meteohub,2013-02-15 20:52:00,
2013-02-15 12:57:00,75.9,26.4,30.02,NE,45,7.0,8.0,16,0.00,,,0.00,meteohub,2013-02-15 20:57:00,
2013-02-15 13:02:00,75.6,26.2,30.01,East,90,4.0,12.0,16,0.00,,,0.00,meteohub,2013-02-15 21:02:00,
2013-02-15 13:07:00,75.6,26.2,30.02,NE,45,4.0,12.0,16,0.00,,,0.00,meteohub,2013-02-15 21:07:00,
2013-02-15 13:12:00,76.6,27.1,30.01,East,90,4.0,12.0,16,0.00,,,0.00,meteohub,2013-02-15 21:12:00,
2013-02-15 13:17:00,77.5,26.2,30.01,East,90,7.0,10.0,15,0.00,,,0.00,meteohub,2013-02-15 21:17:00,
2013-02-15 13:22:00,78.3,28.4,30.01,NE,45,4.0,7.0,16,0.00,,,0.00,meteohub,2013-02-15 21:22:00,
2013-02-15 13:27:00,78.3,26.8,30.01,North,0,4.0,7.0,15,0.00,,,0.00,meteohub,2013-02-15 21:27:00,
2013-02-15 13:32:00,78.6,27.1,30.00,North,0,8.0,8.0,15,0.00,,,0.00,meteohub,2013-02-15 21:32:00,
2013-02-15 13:37:00,78.6,28.8,30.01,East,90,4.0,8.0,16,0.00,,,0.00,meteohub,2013-02-15 21:37:00,
2013-02-15 13:42:00,78.3,28.4,30.00,SE,135,4.0,8.0,16,0.00,,,0.00,meteohub,2013-02-15 21:42:00,
2013-02-15 13:47:00,78.8,27.3,30.00,South,180,3.0,8.0,15,0.00,,,0.00,meteohub,2013-02-15 21:47:00,
2013-02-15 13:52:00,79.0,27.3,30.00,East,90,3.0,6.0,15,0.00,,,0.00,meteohub,2013-02-15 21:52:00,
2013-02-15 13:57:00,79.0,27.3,30.00,NE,45,3.0,6.0,15,0.00,,,0.00,meteohub,2013-02-15 21:57:00,
2013-02-15 14:02:00,79.0,27.3,30.00,North,0,4.0,6.0,15,0.00,,,0.00,meteohub,2013-02-15 22:02:00,
2013-02-15 14:07:00,79.0,27.3,30.00,North,0,4.0,6.0,15,0.00,,,0.00,meteohub,2013-02-15 22:07:00,
2013-02-15 14:12:00,79.0,27.3,30.00,East,90,7.0,7.0,15,0.00,,,0.00,meteohub,2013-02-15 22:12:00,
2013-02-15 14:17:00,78.4,28.6,30.00,SSE,158,4.0,7.0,16,0.00,,,0.00,meteohub,2013-02-15 22:17:00,
2013-02-15 14:22:00,79.0,27.3,29.99,East,90,3.0,7.0,15,0.00,,,0.00,meteohub,2013-02-15 22:22:00,
2013-02-15 14:27:00,79.3,27.7,30.00,NW,315,8.0,8.0,15,0.00,,,0.00,meteohub,2013-02-15 22:27:00,
2013-02-15 14:32:00,79.2,27.5,30.00,NW,315,3.0,8.0,15,0.00,,,0.00,meteohub,2013-02-15 22:32:00,
2013-02-15 14:37:00,78.8,27.3,30.00,SE,135,3.0,8.0,15,0.00,,,0.00,meteohub,2013-02-15 22:37:00,
2013-02-15 14:42:00,79.0,27.3,30.00,NW,315,4.0,8.0,15,0.00,,,0.00,meteohub,2013-02-15 22:42:00,
2013-02-15 14:47:00,79.0,27.3,30.00,North,0,4.0,5.0,15,0.00,,,0.00,meteohub,2013-02-15 22:47:00,
2013-02-15 14:52:00,79.3,29.3,30.00,North,0,2.0,7.0,16,0.00,,,0.00,meteohub,2013-02-15 22:52:00,
2013-02-15 14:57:00,79.5,29.5,30.00,North,0,5.0,8.0,16,0.00,,,0.00,meteohub,2013-02-15 22:57:00,
2013-02-15 15:02:00,79.2,29.1,30.00,NW,315,4.0,8.0,16,0.00,,,0.00,meteohub,2013-02-15 23:02:00,
2013-02-15 15:07:00,79.5,29.5,30.00,North,0,6.0,8.0,16,0.00,,,0.00,meteohub,2013-02-15 23:07:00,
2013-02-15 15:12:00,79.5,29.5,30.00,NW,315,8.0,8.0,16,0.00,,,0.00,meteohub,2013-02-15 23:12:00,
2013-02-15 15:17:00,79.0,28.9,30.00,North,0,8.0,8.0,16,0.00,,,0.00,meteohub,2013-02-15 23:17:00,
2013-02-15 15:22:00,78.3,29.8,30.00,NW,315,9.0,9.0,17,0.00,,,0.00,meteohub,2013-02-15 23:22:00,
2013-02-15 15:27:00,77.4,29.1,30.00,NW,315,10.0,11.0,17,0.00,,,0.00,meteohub,2013-02-15 23:27:00,
2013-02-15 15:32:00,77.0,28.8,30.00,NW,315,8.0,11.0,17,0.00,,,0.00,meteohub,2013-02-15 23:32:00,
2013-02-15 15:37:00,77.0,28.8,30.00,NW,315,6.0,11.0,17,0.00,,,0.00,meteohub,2013-02-15 23:37:00,
2013-02-15 15:42:00,77.2,28.9,30.00,NW,315,10.0,11.0,17,0.00,,,0.00,meteohub,2013-02-15 23:42:00,
2013-02-15 15:47:00,77.0,28.8,30.00,West,270,8.0,11.0,17,0.00,,,0.00,meteohub,2013-02-15 23:47:00,
2013-02-15 15:52:00,76.6,30.0,30.00,NW,315,11.0,11.0,18,0.00,,,0.00,meteohub,2013-02-15 23:52:00,
2013-02-15 15:57:00,76.3,29.7,30.00,NW,315,6.0,11.0,18,0.00,,,0.00,meteohub,2013-02-15 23:57:00,
2013-02-15 16:02:00,76.1,29.5,30.00,West,270,6.0,11.0,18,0.00,,,0.00,meteohub,2013-02-16 00:02:00,
2013-02-15 16:07:00,76.1,29.5,29.99,West,270,6.0,11.0,18,0.00,,,0.00,meteohub,2013-02-16 00:07:00,
2013-02-15 16:12:00,74.5,29.5,29.99,West,270,6.0,8.0,19,0.00,,,0.00,meteohub,2013-02-16 00:12:00,
2013-02-15 16:17:00,73.8,28.9,30.00,NW,315,8.0,8.0,19,0.00,,,0.00,meteohub,2013-02-16 00:17:00,
2013-02-15 16:22:00,73.4,28.6,30.00,West,270,8.0,8.0,19,0.00,,,0.00,meteohub,2013-02-16 00:22:00,
2013-02-15 16:27:00,73.0,24.3,30.00,NW,315,7.0,8.0,16,0.00,,,0.00,meteohub,2013-02-16 00:27:00,
2013-02-15 16:32:00,72.7,23.9,30.00,NW,315,7.0,8.0,16,0.00,,,0.00,meteohub,2013-02-16 00:32:00,
2013-02-15 16:37:00,72.0,23.4,30.00,West,270,4.0,8.0,16,0.00,,,0.00,meteohub,2013-02-16 00:37:00,
2013-02-15 16:42:00,71.8,23.2,30.00,West,270,5.0,8.0,16,0.00,,,0.00,meteohub,2013-02-16 00:42:00,
2013-02-15 16:47:00,71.6,23.0,30.00,NW,315,5.0,8.0,16,0.00,,,0.00,meteohub,2013-02-16 00:47:00,
2013-02-15 16:52:00,71.1,24.1,29.99,West,270,6.0,7.0,17,0.00,,,0.00,meteohub,2013-02-16 00:52:00,
2013-02-15 16:57:00,70.5,23.5,30.00,West,270,6.0,7.0,17,0.00,,,0.00,meteohub,2013-02-16 00:57:00,
2013-02-15 17:02:00,69.8,23.0,30.00,West,270,6.0,8.0,17,0.00,,,0.00,meteohub,2013-02-16 01:02:00,
2013-02-15 17:06:00,69.4,24.1,30.00,West,270,5.0,8.0,18,0.00,,,0.00,meteohub,2013-02-16 01:06:00,
2013-02-15 17:07:00,69.4,24.1,30.00,NW,315,4.0,8.0,18,0.00,,,0.00,meteohub,2013-02-16 01:07:00,
2013-02-15 17:12:00,69.1,23.7,30.00,West,270,4.0,8.0,18,0.00,,,0.00,meteohub,2013-02-16 01:12:00,
2013-02-15 17:17:00,68.7,23.5,30.00,West,270,4.0,7.0,18,0.00,,,0.00,meteohub,2013-02-16 01:17:00,
2013-02-15 17:22:00,68.0,22.8,30.00,NW,315,4.0,5.0,18,0.00,,,0.00,meteohub,2013-02-16 01:22:00,
2013-02-15 17:27:00,67.1,23.5,30.00,West,270,4.0,5.0,19,0.00,,,0.00,meteohub,2013-02-16 01:27:00,
2013-02-15 17:32:00,66.4,22.8,30.00,West,270,4.0,5.0,19,0.00,,,0.00,meteohub,2013-02-16 01:32:00,
2013-02-15 17:37:00,65.7,23.5,30.00,NW,315,4.0,7.0,20,0.00,,,0.00,meteohub,2013-02-16 01:37:00,
2013-02-15 17:42:00,65.1,23.0,30.00,SW,225,4.0,7.0,20,0.00,,,0.00,meteohub,2013-02-16 01:42:00,
2013-02-15 17:47:00,64.8,22.8,30.00,West,270,3.0,7.0,20,0.00,,,0.00,meteohub,2013-02-16 01:47:00,
2013-02-15 17:52:00,64.4,22.5,30.01,West,270,4.0,5.0,20,0.00,,,0.00,meteohub,2013-02-16 01:52:00,
2013-02-15 17:57:00,64.0,23.4,30.01,West,270,4.0,5.0,21,0.00,,,0.00,meteohub,2013-02-16 01:57:00,
2013-02-15 18:02:00,63.7,23.0,30.01,West,270,4.0,5.0,21,0.00,,,0.00,meteohub,2013-02-16 02:02:00,
2013-02-15 18:07:00,63.7,23.0,30.01,West,270,4.0,5.0,21,0.00,,,0.00,meteohub,2013-02-16 02:07:00,
2013-02-15 18:12:00,63.0,22.5,30.01,West,270,2.0,4.0,21,0.00,,,0.00,meteohub,2013-02-16 02:12:00,
2013-02-15 18:17:00,62.8,22.3,30.01,West,270,3.0,4.0,21,0.00,,,0.00,meteohub,2013-02-16 02:17:00,
2013-02-15 18:22:00,62.2,23.0,30.01,West,270,2.0,4.0,22,0.00,,,0.00,meteohub,2013-02-16 02:22:00,
2013-02-15 18:27:00,61.9,22.6,30.01,West,270,2.0,3.0,22,0.00,,,0.00,meteohub,2013-02-16 02:27:00,
2013-02-15 18:32:00,61.5,22.3,30.01,SE,135,1.0,4.0,22,0.00,,,0.00,meteohub,2013-02-16 02:32:00,
2013-02-15 18:37:00,61.2,20.8,30.01,West,270,3.0,4.0,21,0.00,,,0.00,meteohub,2013-02-16 02:37:00,
2013-02-15 18:42:00,60.8,21.7,30.01,West,270,2.0,4.0,22,0.00,,,0.00,meteohub,2013-02-16 02:42:00,
2013-02-15 18:47:00,60.6,21.6,30.01,West,270,2.0,4.0,22,0.00,,,0.00,meteohub,2013-02-16 02:47:00,
2013-02-15 18:52:00,60.4,21.4,30.02,West,270,1.0,4.0,22,0.00,,,0.00,meteohub,2013-02-16 02:52:00,
2013-02-15 18:57:00,60.3,21.2,30.02,South,180,1.0,3.0,22,0.00,,,0.00,meteohub,2013-02-16 02:57:00,
2013-02-15 19:02:00,60.3,21.2,30.02,South,180,1.0,2.0,22,0.00,,,0.00,meteohub,2013-02-16 03:02:00,
2013-02-15 19:07:00,60.3,21.2,30.02,South,180,0.0,2.0,22,0.00,,,0.00,meteohub,2013-02-16 03:07:00,
2013-02-15 19:12:00,60.1,21.0,30.03,SE,135,0.0,2.0,22,0.00,,,0.00,meteohub,2013-02-16 03:12:00,
2013-02-15 19:17:00,59.5,20.7,30.03,SE,135,1.0,2.0,22,0.00,,,0.00,meteohub,2013-02-16 03:17:00,
2013-02-15 19:22:00,59.2,20.3,30.03,SE,135,2.0,2.0,22,0.00,,,0.00,meteohub,2013-02-16 03:22:00,
2013-02-15 19:27:00,59.0,20.1,30.03,SE,135,2.0,2.0,22,0.00,,,0.00,meteohub,2013-02-16 03:27:00,
2013-02-15 19:32:00,58.8,21.0,30.03,SE,135,2.0,2.0,23,0.00,,,0.00,meteohub,2013-02-16 03:32:00,
2013-02-15 19:37:00,59.4,20.5,30.03,South,180,3.0,3.0,22,0.00,,,0.00,meteohub,2013-02-16 03:37:00,
2013-02-15 19:42:00,60.3,21.2,30.03,South,180,2.0,3.0,22,0.00,,,0.00,meteohub,2013-02-16 03:42:00,
2013-02-15 19:47:00,60.1,21.0,30.03,South,180,2.0,3.0,22,0.00,,,0.00,meteohub,2013-02-16 03:47:00,
2013-02-15 19:52:00,59.5,20.7,30.03,SW,225,0.0,3.0,22,0.00,,,0.00,meteohub,2013-02-16 03:52:00,
2013-02-15 19:57:00,59.4,20.5,30.03,South,180,2.0,3.0,22,0.00,,,0.00,meteohub,2013-02-16 03:57:00,
2013-02-15 20:02:00,59.4,20.5,30.03,South,180,2.0,2.0,22,0.00,,,0.00,meteohub,2013-02-16 04:02:00,
2013-02-15 20:07:00,59.4,20.5,30.03,South,180,2.0,2.0,22,0.00,,,0.00,meteohub,2013-02-16 04:07:00,
2013-02-15 20:12:00,59.5,20.7,30.03,SE,135,2.0,2.0,22,0.00,,,0.00,meteohub,2013-02-16 04:12:00,
2013-02-15 20:17:00,59.7,20.8,30.03,SE,135,2.0,3.0,22,0.00,,,0.00,meteohub,2013-02-16 04:17:00,
2013-02-15 20:22:00,60.1,19.9,30.03,SE,135,1.0,3.0,21,0.00,,,0.00,meteohub,2013-02-16 04:22:00,
2013-02-15 20:27:00,60.4,20.3,30.03,South,180,0.0,3.0,21,0.00,,,0.00,meteohub,2013-02-16 04:27:00,
2013-02-15 20:32:00,60.6,20.5,30.03,West,270,0.0,3.0,21,0.00,,,0.00,meteohub,2013-02-16 04:32:00,
2013-02-15 20:37:00,60.4,20.3,30.03,SW,225,0.0,2.0,21,0.00,,,0.00,meteohub,2013-02-16 04:37:00,
2013-02-15 20:42:00,60.3,20.1,30.03,South,180,0.0,1.0,21,0.00,,,0.00,meteohub,2013-02-16 04:42:00,
2013-02-15 20:47:00,59.9,19.9,30.03,South,180,0.0,1.0,21,0.00,,,0.00,meteohub,2013-02-16 04:47:00,
2013-02-15 20:52:00,59.7,20.8,30.04,South,180,0.0,1.0,22,0.00,,,0.00,meteohub,2013-02-16 04:52:00,
2013-02-15 20:57:00,59.9,19.9,30.03,South,180,0.0,1.0,21,0.00,,,0.00,meteohub,2013-02-16 04:57:00,
2013-02-15 21:00:00,60.1,19.9,30.03,South,180,0.0,1.0,21,0.00,,,0.00,meteohub,2013-02-16 05:00:00,
2013-02-15 21:01:00,60.1,19.9,30.03,South,180,0.0,0.0,21,0.00,,,0.00,meteohub,2013-02-16 05:01:00,
2013-02-15 21:02:00,60.1,19.9,30.03,South,180,0.0,0.0,21,0.00,,,0.00,meteohub,2013-02-16 05:02:00,
2013-02-15 21:07:00,59.9,21.0,30.03,South,180,0.0,0.0,22,0.00,,,0.00,meteohub,2013-02-16 05:07:00,
2013-02-15 21:12:00,60.1,21.0,30.04,East,90,2.0,0.0,22,0.00,,,0.00,meteohub,2013-02-16 05:12:00,
2013-02-15 21:17:00,60.6,21.6,30.04,SE,135,2.0,4.0,22,0.00,,,0.00,meteohub,2013-02-16 05:17:00,
2013-02-15 21:22:00,61.3,21.0,30.04,SE,135,2.0,4.0,21,0.00,,,0.00,meteohub,2013-02-16 05:22:00,
2013-02-15 21:24:00,61.3,21.0,30.04,SE,135,2.0,4.0,21,0.00,,,0.00,meteohub,2013-02-16 05:24:00,
2013-02-15 21:29:00,61.2,20.8,30.04,ESE,113,2.0,4.0,21,0.00,,,0.00,meteohub,2013-02-16 05:29:00,
2013-02-15 21:34:00,61.0,20.8,30.04,SE,135,2.0,4.0,21,0.00,,,0.00,meteohub,2013-02-16 05:34:00,
2013-02-15 21:39:00,61.0,20.8,30.03,SE,135,2.0,4.0,21,0.00,,,0.00,meteohub,2013-02-16 05:39:00,
2013-02-15 21:44:00,61.0,20.8,30.04,SE,135,2.0,3.0,21,0.00,,,0.00,meteohub,2013-02-16 05:44:00,
2013-02-15 21:49:00,61.0,20.8,30.03,SE,135,2.0,3.0,21,0.00,,,0.00,meteohub,2013-02-16 05:49:00,
2013-02-15 21:54:00,60.8,20.7,30.03,NE,45,0.0,2.0,21,0.00,,,0.00,meteohub,2013-02-16 05:54:00,
2013-02-15 21:59:00,60.4,21.4,30.03,West,270,2.0,2.0,22,0.00,,,0.00,meteohub,2013-02-16 05:59:00,
2013-02-15 22:04:00,60.4,21.4,30.03,West,270,2.0,2.0,22,0.00,,,0.00,meteohub,2013-02-16 06:04:00,
2013-02-15 22:09:00,58.3,20.7,30.02,South,180,1.0,2.0,23,0.00,,,0.00,meteohub,2013-02-16 06:09:00,
2013-02-15 22:14:00,57.2,19.8,30.03,West,270,0.0,2.0,23,0.00,,,0.00,meteohub,2013-02-16 06:14:00,
2013-02-15 22:19:00,56.5,20.1,30.03,South,180,2.0,2.0,24,0.00,,,0.00,meteohub,2013-02-16 06:19:00,
2013-02-15 22:25:00,56.3,19.9,30.03,South,180,0.0,2.0,24,0.00,,,0.00,meteohub,2013-02-16 06:25:00,
2013-02-15 22:30:00,55.9,19.6,30.02,South,180,2.0,2.0,24,0.00,,,0.00,meteohub,2013-02-16 06:30:00,
2013-02-15 22:35:00,55.8,19.6,30.03,SE,135,2.0,2.0,24,0.00,,,0.00,meteohub,2013-02-16 06:35:00,
2013-02-15 22:40:00,55.6,19.4,30.03,SE,135,2.0,2.0,24,0.00,,,0.00,meteohub,2013-02-16 06:40:00,
2013-02-15 22:45:00,55.4,19.2,30.03,SE,135,2.0,2.0,24,0.00,,,0.00,meteohub,2013-02-16 06:45:00,
2013-02-15 22:50:00,55.4,19.2,30.03,East,90,2.0,2.0,24,0.00,,,0.00,meteohub,2013-02-16 06:50:00,
2013-02-15 22:55:00,55.6,19.4,30.03,SE,135,1.0,2.0,24,0.00,,,0.00,meteohub,2013-02-16 06:55:00,
2013-02-15 23:00:00,55.2,16.0,30.03,South,180,2.0,2.0,21,0.00,,,0.00,meteohub,2013-02-16 07:00:00,
2013-02-15 23:05:00,54.7,15.4,30.03,SE,135,2.0,2.0,21,0.00,,,0.00,meteohub,2013-02-16 07:05:00,
2013-02-15 23:10:00,53.8,14.7,30.03,SE,135,3.0,4.0,21,0.00,,,0.00,meteohub,2013-02-16 07:10:00,
2013-02-15 23:15:00,53.6,14.5,30.03,South,180,3.0,4.0,21,0.00,,,0.00,meteohub,2013-02-16 07:15:00,
2013-02-15 23:21:00,54.5,15.3,30.03,SE,135,5.0,5.0,21,0.00,,,0.00,meteohub,2013-02-16 07:21:00,
2013-02-15 23:26:00,55.2,16.0,30.03,SE,135,3.0,6.0,21,0.00,,,0.00,meteohub,2013-02-16 07:26:00,
2013-02-15 23:31:00,54.7,15.4,30.03,SE,135,2.0,6.0,21,0.00,,,0.00,meteohub,2013-02-16 07:31:00,
2013-02-15 23:36:00,53.6,14.5,30.02,SE,135,2.0,6.0,21,0.00,,,0.00,meteohub,2013-02-16 07:36:00,
2013-02-15 23:41:00,52.7,14.9,30.02,SE,135,2.0,4.0,22,0.00,,,0.00,meteohub,2013-02-16 07:41:00,
2013-02-15 23:46:00,52.0,14.4,30.02,SE,135,3.0,3.0,22,0.00,,,0.00,meteohub,2013-02-16 07:46:00,
2013-02-15 23:51:00,51.4,14.9,30.02,SE,135,4.0,4.0,23,0.00,,,0.00,meteohub,2013-02-16 07:51:00,
2013-02-15 23:56:00,51.8,14.2,30.02,SE,135,3.0,4.0,22,0.00,,,0.00,meteohub,2013-02-16 07:56:00,